createdAt,value
2018-03-08T00:00:15.714Z,69.21
2018-03-08T00:02:45.933Z,70.09
2018-03-08T00:05:15.354Z,69.91
2018-03-08T00:07:45.088Z,69.43
2018-03-08T00:10:17.015Z,69.84
2018-03-08T00:12:50.204Z,69.90
2018-03-08T00:15:21.229Z,70.12
2018-03-08T00:17:51.085Z,70.03
2018-03-08T00:20:20.055Z,69.89
2018-03-08T00:22:49.230Z,70.23
2018-03-08T00:25:18.453Z,70.54
2018-03-08T00:27:47.444Z,67.49
2018-03-08T00:30:16.779Z,67.58
2018-03-08T00:32:46.054Z,68.78
2018-03-08T00:35:15.447Z,69.83
2018-03-08T00:40:19.476Z,70.94
2018-03-08T00:42:48.886Z,71.38
2018-03-08T00:45:17.874Z,71.49
2018-03-08T00:47:49.022Z,71.40
2018-03-08T00:50:18.114Z,71.27
2018-03-08T00:52:47.423Z,73.14
2018-03-08T00:55:16.820Z,73.12
2018-03-08T00:57:46.771Z,73.61
2018-03-08T01:00:16.479Z,73.90
2018-03-08T01:02:48.615Z,74.09
2018-03-08T01:05:20.369Z,73.92
2018-03-08T01:07:50.434Z,72.98
2018-03-08T01:10:19.710Z,72.56
2018-03-08T01:12:49.202Z,71.00
2018-03-08T01:15:19.562Z,70.68
2018-03-08T01:17:48.805Z,71.39
2018-03-08T01:20:18.183Z,71.60
2018-03-08T01:22:47.570Z,71.83
2018-03-08T01:25:16.726Z,72.11
2018-03-08T01:27:45.712Z,72.06
2018-03-08T01:30:15.008Z,72.25
2018-03-08T01:32:44.323Z,72.72
2018-03-08T01:35:13.621Z,72.78
2018-03-08T01:37:43.618Z,72.29
2018-03-08T01:40:13.772Z,72.50
2018-03-08T01:42:43.583Z,72.27
2018-03-08T01:45:12.499Z,72.50
2018-03-08T01:47:41.465Z,72.17
2018-03-08T01:50:10.654Z,72.71
2018-03-08T01:52:40.515Z,72.33
2018-03-08T01:55:09.475Z,71.77
2018-03-08T01:57:38.555Z,70.08
2018-03-08T02:00:09.710Z,69.64
2018-03-08T02:02:38.698Z,68.44
2018-03-08T02:05:07.695Z,68.90
2018-03-08T02:07:37.610Z,69.38
2018-03-08T02:10:06.806Z,69.08
2018-03-08T02:12:35.905Z,68.55
2018-03-08T02:15:11.556Z,68.74
2018-03-08T02:17:41.671Z,69.31
2018-03-08T02:20:11.173Z,70.06
2018-03-08T02:22:41.960Z,69.87
2018-03-08T02:25:11.935Z,69.42
2018-03-08T02:27:41.128Z,69.57
2018-03-08T02:30:10.229Z,69.22
2018-03-08T02:32:39.224Z,69.18
2018-03-08T02:35:09.033Z,69.40
2018-03-08T02:37:38.135Z,69.10
2018-03-08T02:40:08.164Z,68.91
2018-03-08T02:42:39.809Z,68.77
2018-03-08T02:45:08.799Z,68.72
2018-03-08T02:47:37.899Z,68.82
2018-03-08T02:50:06.861Z,68.99
2018-03-08T02:52:36.845Z,69.45
2018-03-08T02:55:05.838Z,69.74
2018-03-08T02:57:34.795Z,69.99
2018-03-08T03:00:03.995Z,70.15
2018-03-08T03:02:32.986Z,70.92
2018-03-08T03:05:04.644Z,70.87
2018-03-08T03:07:34.553Z,70.92
2018-03-08T03:10:03.766Z,71.59
2018-03-08T03:12:34.509Z,71.71
2018-03-08T03:15:04.406Z,71.86
2018-03-08T03:17:35.054Z,72.57
2018-03-08T03:20:05.265Z,73.03
2018-03-08T03:22:34.263Z,73.23
2018-03-08T03:25:04.287Z,73.22
2018-03-08T03:27:34.402Z,73.12
2018-03-08T03:30:04.936Z,73.61
2018-03-08T03:32:34.093Z,73.63
2018-03-08T03:35:05.074Z,73.20
2018-03-08T03:37:34.477Z,73.20
2018-03-08T03:40:04.388Z,72.98
2018-03-08T03:42:35.124Z,73.09
2018-03-08T03:45:04.311Z,72.70
2018-03-08T03:47:33.320Z,72.42
2018-03-08T03:50:05.697Z,72.63
2018-03-08T03:52:34.943Z,73.04
2018-03-08T03:55:03.996Z,73.92
2018-03-08T03:57:32.998Z,73.57
2018-03-08T04:00:02.174Z,74.18
2018-03-08T04:02:31.273Z,74.25
2018-03-08T04:05:01.214Z,74.31
2018-03-08T04:07:30.185Z,74.17
2018-03-08T04:09:59.173Z,74.44
2018-03-08T04:12:28.281Z,74.03
2018-03-08T04:15:01.516Z,74.01
2018-03-08T04:17:32.419Z,74.61
2018-03-08T04:20:01.400Z,74.02
2018-03-08T04:22:30.490Z,74.70
2018-03-08T04:25:00.410Z,74.35
2018-03-08T04:27:29.934Z,74.41
2018-03-08T04:29:59.211Z,74.75
2018-03-08T04:32:29.864Z,74.89
2018-03-08T04:34:58.748Z,75.22
2018-03-08T04:37:28.593Z,75.11
2018-03-08T04:42:32.275Z,74.72
2018-03-08T04:45:01.290Z,74.95
2018-03-08T04:47:31.693Z,75.58
2018-03-08T04:50:00.686Z,75.36
2018-03-08T04:52:30.025Z,74.16
2018-03-08T04:55:01.346Z,72.69
2018-03-08T04:57:30.380Z,71.50
2018-03-08T04:59:59.528Z,70.63
2018-03-08T05:02:28.545Z,70.54
2018-03-08T05:04:57.420Z,69.98
2018-03-08T05:07:27.620Z,70.11
2018-03-08T05:09:58.299Z,69.46
2018-03-08T05:12:27.879Z,68.35
2018-03-08T05:14:56.978Z,69.48
2018-03-08T05:17:26.234Z,68.47
2018-03-08T05:19:55.332Z,68.80
2018-03-08T05:22:24.473Z,68.73
2018-03-08T05:24:53.758Z,67.94
2018-03-08T05:27:22.895Z,67.39
2018-03-08T05:29:51.966Z,67.20
2018-03-08T05:32:21.353Z,66.76
2018-03-08T05:34:50.573Z,65.77
2018-03-08T05:37:19.769Z,64.54
2018-03-08T05:39:49.679Z,63.45
2018-03-08T05:42:18.784Z,62.61
2018-03-08T05:44:49.459Z,62.59
2018-03-08T05:47:19.218Z,61.77
2018-03-08T05:49:48.265Z,60.91
2018-03-08T05:52:17.821Z,61.15
2018-03-08T05:54:47.739Z,60.44
2018-03-08T05:57:16.729Z,60.72
2018-03-08T05:59:45.725Z,60.35
2018-03-08T06:02:19.818Z,60.08
2018-03-08T06:04:50.252Z,58.58
2018-03-08T06:07:19.389Z,57.05
2018-03-08T06:09:49.173Z,55.85
2018-03-08T06:12:19.186Z,56.17
2018-03-08T06:14:48.448Z,55.19
2018-03-08T06:17:18.208Z,55.86
2018-03-08T06:19:48.385Z,55.49
2018-03-08T06:22:17.944Z,55.56
2018-03-08T06:24:47.393Z,56.33
2018-03-08T06:27:16.629Z,56.86
2018-03-08T06:29:45.840Z,55.63
2018-03-08T06:32:15.802Z,53.99
2018-03-08T06:34:44.990Z,52.97
2018-03-08T06:37:14.253Z,52.98
2018-03-08T06:39:43.742Z,52.74
2018-03-08T06:42:13.195Z,51.52
2018-03-08T06:44:42.301Z,50.48
2018-03-08T06:47:12.212Z,50.10
2018-03-08T06:49:41.370Z,51.67
2018-03-08T06:52:10.663Z,51.07
2018-03-08T06:54:43.281Z,51.35
2018-03-08T06:57:12.542Z,52.32
2018-03-08T06:59:41.698Z,53.45
2018-03-08T07:02:11.055Z,55.75
2018-03-08T07:04:40.455Z,56.88
2018-03-08T07:07:09.413Z,56.61
2018-03-08T07:09:39.579Z,57.10
2018-03-08T07:12:09.519Z,57.82
2018-03-08T07:14:39.738Z,57.32
2018-03-08T07:17:11.262Z,58.23
2018-03-08T07:19:40.459Z,57.72
2018-03-08T07:22:09.454Z,56.94
2018-03-08T07:24:40.356Z,57.72
2018-03-08T07:27:09.390Z,58.04
2018-03-08T07:29:38.894Z,57.73
2018-03-08T07:32:10.277Z,57.75
2018-03-08T07:34:42.370Z,58.68
2018-03-08T07:37:14.658Z,58.73
2018-03-08T07:39:44.729Z,58.30
2018-03-08T07:42:14.049Z,57.70
2018-03-08T07:44:43.610Z,57.98
2018-03-08T07:47:12.933Z,57.01
2018-03-08T07:49:42.226Z,55.33
2018-03-08T07:52:11.660Z,56.44
2018-03-08T07:54:40.878Z,56.39
2018-03-08T07:57:11.106Z,56.13
2018-03-08T07:59:43.550Z,55.94
2018-03-08T08:02:13.664Z,55.62
2018-03-08T08:04:54.400Z,55.20
2018-03-08T08:07:35.051Z,56.05
2018-03-08T08:10:10.793Z,55.74
2018-03-08T08:12:40.103Z,55.66
2018-03-08T08:15:10.425Z,54.74
2018-03-08T08:17:40.220Z,54.99
2018-03-08T08:20:10.044Z,56.23
2018-03-08T08:22:39.363Z,55.15
2018-03-08T08:30:18.933Z,55.20
2018-03-08T08:32:48.458Z,54.82
2018-03-08T08:35:17.462Z,55.17
2018-03-08T08:37:47.290Z,55.12
2018-03-08T08:40:16.477Z,55.03
2018-03-08T08:42:47.233Z,55.45
2018-03-08T08:45:16.501Z,56.32
2018-03-08T08:47:46.230Z,56.47
2018-03-08T08:50:15.425Z,55.85
2018-03-08T08:52:46.964Z,56.44
2018-03-08T08:55:16.282Z,56.46
2018-03-08T08:57:45.643Z,57.15
2018-03-08T09:00:16.674Z,56.87
2018-03-08T09:02:47.568Z,56.78
2018-03-08T09:05:19.375Z,57.40
2018-03-08T09:07:48.847Z,57.86
2018-03-08T09:10:19.091Z,58.12
2018-03-08T09:12:49.362Z,58.93
2018-03-08T09:15:18.774Z,58.90
2018-03-08T09:17:50.156Z,58.87
2018-03-08T09:20:19.332Z,58.81
2018-03-08T09:22:49.336Z,58.15
2018-03-08T09:25:18.648Z,58.41
2018-03-08T09:27:53.984Z,58.05
2018-03-08T09:30:22.977Z,57.85
2018-03-08T09:32:52.041Z,58.05
2018-03-08T09:35:23.074Z,58.04
2018-03-08T09:37:52.315Z,57.57
2018-03-08T09:40:22.801Z,58.20
2018-03-08T09:42:52.050Z,58.25
2018-03-08T09:45:21.005Z,58.52
2018-03-08T09:47:50.962Z,59.23
2018-03-08T09:50:23.287Z,58.83
2018-03-08T09:52:52.471Z,59.56
2018-03-08T09:55:22.495Z,60.74
2018-03-08T09:57:52.504Z,60.18
2018-03-08T10:00:22.546Z,60.35
2018-03-08T10:02:51.704Z,61.70
2018-03-08T10:05:21.763Z,61.06
2018-03-08T10:07:51.256Z,61.00
2018-03-08T10:10:20.203Z,60.67
2018-03-08T10:12:50.484Z,61.40
2018-03-08T10:15:20.236Z,61.95
2018-03-08T10:20:26.465Z,61.81
2018-03-08T10:22:55.767Z,62.52
2018-03-08T10:25:24.876Z,62.73
2018-03-08T10:27:56.465Z,63.46
2018-03-08T10:30:26.499Z,63.98
2018-03-08T10:32:55.932Z,64.64
2018-03-08T10:35:25.236Z,65.42
2018-03-08T10:37:55.723Z,65.53
2018-03-08T10:42:56.683Z,65.39
2018-03-08T10:45:26.436Z,65.51
2018-03-08T10:47:55.799Z,65.46
2018-03-08T10:50:31.240Z,65.04
2018-03-08T10:53:00.333Z,65.05
2018-03-08T10:55:29.234Z,64.00
2018-03-08T10:58:01.004Z,63.97
2018-03-08T11:00:36.091Z,64.22
2018-03-08T11:03:07.265Z,64.68
2018-03-08T11:05:41.894Z,65.30
2018-03-08T11:08:12.068Z,64.35
2018-03-08T11:10:41.113Z,63.71
2018-03-08T11:13:11.905Z,63.85
2018-03-08T11:15:42.175Z,61.52
2018-03-08T11:18:12.503Z,61.17
2018-03-08T11:20:41.805Z,61.04
2018-03-08T11:23:12.836Z,59.85
2018-03-08T11:25:42.444Z,61.06
2018-03-08T11:28:11.647Z,62.25
2018-03-08T11:33:15.573Z,62.95
2018-03-08T11:35:44.872Z,62.30
2018-03-08T11:38:14.172Z,62.57
2018-03-08T11:40:43.196Z,60.75
2018-03-08T11:43:12.418Z,60.15
2018-03-08T11:45:42.006Z,61.29
2018-03-08T11:48:11.773Z,60.86
2018-03-08T11:50:40.787Z,60.63
2018-03-08T11:53:10.390Z,59.71
2018-03-08T11:55:39.662Z,59.76
2018-03-08T11:58:08.682Z,59.16
2018-03-08T12:00:38.679Z,59.69
2018-03-08T12:03:07.592Z,58.97
2018-03-08T12:05:36.951Z,59.07
2018-03-08T12:08:05.838Z,59.40
2018-03-08T12:10:34.819Z,60.41
2018-03-08T12:31:04.551Z,61.87
2018-03-08T12:33:33.451Z,62.18
2018-03-08T12:36:03.384Z,62.45
2018-03-08T12:41:07.976Z,62.06
2018-03-08T12:43:37.154Z,61.21
2018-03-08T12:46:06.231Z,61.63
2018-03-08T12:48:35.175Z,61.12
2018-03-08T12:51:04.088Z,60.38
2018-03-08T12:53:33.172Z,59.80
2018-03-08T12:56:02.222Z,59.81
2018-03-08T12:58:31.514Z,59.83
2018-03-08T13:01:03.049Z,59.60
2018-03-08T13:03:32.036Z,59.78
2018-03-08T13:06:00.998Z,60.34
2018-03-08T13:08:30.117Z,60.88
2018-03-08T13:10:59.111Z,61.49
2018-03-08T13:13:28.090Z,62.34
2018-03-08T13:15:57.194Z,62.61
2018-03-08T13:18:27.362Z,61.84
2018-03-08T13:20:56.463Z,61.84
2018-03-08T13:23:25.513Z,61.71
2018-03-08T13:25:54.600Z,61.67
2018-03-08T13:28:24.741Z,61.26
2018-03-08T13:30:55.446Z,60.87
2018-03-08T13:33:24.646Z,60.74
2018-03-08T13:35:53.552Z,60.27
2018-03-08T13:38:22.545Z,60.97
2018-03-08T13:40:51.587Z,61.20
2018-03-08T13:43:20.893Z,61.22
2018-03-08T13:45:52.752Z,60.98
2018-03-08T13:48:22.069Z,60.95
2018-03-08T13:50:51.005Z,61.01
2018-03-08T13:53:20.096Z,60.69
2018-03-08T13:55:49.096Z,61.00
2018-03-08T13:58:18.294Z,60.48
2018-03-08T14:00:48.457Z,60.41
2018-03-08T14:03:17.834Z,60.31
2018-03-08T14:05:47.179Z,60.44
2018-03-08T14:08:17.544Z,61.21
2018-03-08T14:10:46.786Z,61.20
2018-03-08T14:13:15.735Z,61.39
2018-03-08T14:15:45.953Z,62.07
2018-03-08T14:18:15.359Z,61.85
2018-03-08T14:20:45.435Z,61.46
2018-03-08T14:23:15.601Z,61.94
2018-03-08T14:25:45.959Z,61.91
2018-03-08T14:28:15.332Z,61.08
2018-03-08T14:30:44.575Z,61.15
2018-03-08T14:33:14.121Z,61.44
2018-03-08T14:35:44.532Z,61.82
2018-03-08T14:38:14.787Z,61.72
2018-03-08T14:40:44.909Z,61.16
2018-03-08T14:43:14.334Z,61.11
2018-03-08T14:45:43.699Z,60.29
2018-03-08T14:48:13.119Z,60.38
2018-03-08T14:50:42.411Z,60.29
2018-03-08T14:53:12.619Z,60.74
2018-03-08T14:55:41.838Z,60.18
2018-03-08T14:58:11.244Z,60.75
2018-03-08T15:00:40.461Z,60.79
2018-03-08T15:03:09.950Z,60.85
2018-03-08T15:05:39.153Z,61.23
2018-03-08T15:08:10.191Z,61.39
2018-03-08T15:10:39.499Z,61.42
2018-03-08T15:13:08.705Z,61.95
2018-03-08T15:15:37.760Z,61.52
2018-03-08T15:18:06.721Z,61.33
2018-03-08T15:20:36.609Z,61.10
2018-03-08T15:23:05.691Z,60.94
2018-03-08T15:25:34.796Z,61.38
2018-03-08T15:28:03.728Z,61.19
2018-03-08T15:30:32.674Z,60.74
2018-03-08T15:33:01.702Z,61.27
2018-03-08T15:35:30.700Z,61.68
2018-03-08T15:37:59.976Z,61.66
2018-03-08T15:40:28.960Z,61.36
2018-03-08T15:42:58.866Z,61.49
2018-03-08T15:45:29.532Z,61.14
2018-03-08T15:47:58.500Z,60.96
2018-03-08T15:50:27.757Z,61.03
2018-03-08T15:52:57.074Z,60.66
2018-03-08T15:55:25.991Z,60.62
2018-03-08T15:57:54.995Z,60.69
2018-03-08T16:00:25.214Z,60.89
2018-03-08T16:02:54.515Z,60.68
2018-03-08T16:05:23.505Z,60.77
2018-03-08T16:08:19.227Z,60.56
2018-03-08T16:10:48.635Z,60.72
2018-03-08T16:13:17.639Z,60.68
2018-03-08T16:15:46.717Z,60.71
2018-03-08T16:18:16.263Z,60.26
2018-03-08T16:20:45.631Z,60.53
2018-03-08T16:23:14.786Z,60.64
2018-03-08T16:25:44.059Z,60.82
2018-03-08T16:28:15.480Z,60.68
2018-03-08T16:30:44.574Z,61.02
2018-03-08T16:33:13.766Z,61.73
2018-03-08T16:35:43.177Z,62.20
2018-03-08T16:38:12.343Z,62.61
2018-03-08T16:40:41.504Z,63.34
2018-03-08T16:43:10.980Z,63.83
2018-03-08T16:45:39.998Z,64.70
2018-03-08T16:48:09.344Z,64.16
2018-03-08T16:50:39.156Z,64.62
2018-03-08T16:53:08.145Z,65.25
2018-03-08T16:55:37.890Z,65.54
2018-03-08T16:58:06.997Z,65.97
2018-03-08T17:00:35.924Z,66.71
2018-03-08T17:03:04.977Z,67.19
2018-03-08T17:05:35.142Z,67.19
2018-03-08T17:08:04.211Z,67.28
2018-03-08T17:10:34.162Z,67.89
2018-03-08T17:15:38.898Z,67.92
2018-03-08T17:18:08.463Z,67.82
2018-03-08T17:20:39.494Z,68.16
2018-03-08T17:23:08.721Z,68.58
2018-03-08T17:25:37.641Z,68.81
2018-03-08T17:28:09.056Z,69.03
2018-03-08T17:30:38.161Z,68.77
2018-03-08T17:33:07.253Z,69.04
2018-03-08T17:38:11.790Z,69.13
2018-03-08T17:40:41.187Z,69.23
2018-03-08T17:43:12.590Z,68.86
2018-03-08T17:45:41.836Z,68.72
2018-03-08T17:48:11.344Z,68.54
2018-03-08T17:50:41.631Z,68.41
2018-03-08T17:53:11.944Z,68.55
2018-03-08T17:58:18.100Z,68.20
2018-03-08T18:00:47.477Z,68.12
2018-03-08T18:03:16.566Z,68.23
2018-03-08T18:05:47.102Z,68.24
2018-03-08T18:08:16.421Z,68.09
2018-03-08T18:10:45.736Z,67.51
2018-03-08T18:13:16.288Z,67.66
2018-03-08T18:15:45.695Z,67.30
2018-03-08T18:18:15.727Z,67.23
2018-03-08T18:20:46.098Z,67.16
2018-03-08T18:23:15.502Z,66.76
2018-03-08T18:25:44.961Z,66.93
2018-03-08T18:28:15.657Z,66.01
2018-03-08T18:30:45.180Z,66.05
2018-03-08T18:33:14.564Z,66.19
2018-03-08T18:35:45.526Z,65.81
2018-03-08T18:38:14.676Z,65.84
2018-03-08T18:40:52.779Z,65.41
2018-03-08T18:43:21.901Z,65.33
2018-03-08T18:45:51.985Z,65.58
2018-03-08T18:48:21.510Z,65.49
2018-03-08T18:50:50.710Z,65.66
2018-03-08T18:53:20.054Z,65.52
2018-03-08T18:55:49.401Z,65.30
2018-03-08T18:58:27.425Z,65.62
2018-03-08T19:00:56.567Z,66.18
2018-03-08T19:03:25.608Z,66.20
2018-03-08T19:05:54.731Z,66.41
2018-03-08T19:08:24.655Z,66.49
2018-03-08T19:10:53.928Z,67.02
2018-03-08T19:13:23.920Z,67.13
2018-03-08T19:18:27.040Z,67.56
2018-03-08T19:20:56.034Z,67.68
2018-03-08T19:23:27.064Z,67.97
2018-03-08T19:25:57.196Z,68.31
2018-03-08T19:28:26.291Z,68.54
2018-03-08T19:30:56.252Z,68.36
2018-03-08T19:33:25.510Z,68.73
2018-03-08T19:35:55.494Z,68.66
2018-03-08T19:38:25.382Z,68.49
2018-03-08T19:40:54.697Z,68.68
2018-03-08T19:43:24.556Z,68.29
2018-03-08T19:45:55.389Z,68.08
2018-03-08T19:48:24.492Z,68.18
2018-03-08T19:50:53.694Z,68.16
2018-03-08T19:53:26.897Z,67.90
2018-03-08T19:55:55.979Z,68.02
2018-03-08T19:58:25.998Z,67.63
2018-03-08T20:00:56.812Z,67.33
2018-03-08T20:03:25.826Z,67.20
2018-03-08T20:05:54.788Z,67.16
2018-03-08T20:08:23.910Z,67.28
2018-03-08T20:10:53.120Z,68.14
2018-03-08T20:13:23.442Z,67.66
2018-03-08T20:15:52.648Z,67.83
2018-03-08T20:18:21.780Z,68.66
2018-03-08T20:20:50.979Z,69.15
2018-03-08T20:23:21.662Z,68.77
2018-03-08T20:25:50.810Z,68.60
2018-03-08T20:28:20.776Z,69.45
2018-03-08T20:30:49.780Z,69.64
2018-03-08T20:33:19.762Z,69.16
2018-03-08T20:35:48.895Z,69.07
2018-03-08T20:38:19.667Z,68.70
2018-03-08T20:40:49.594Z,69.39
2018-03-08T20:43:18.579Z,68.27
2018-03-08T20:45:48.518Z,68.59
2018-03-08T20:48:18.370Z,69.10
2018-03-08T20:50:47.363Z,68.98
2018-03-08T20:53:18.198Z,68.19
2018-03-08T20:55:48.081Z,68.20
2018-03-08T20:58:17.375Z,67.86
2018-03-08T21:00:46.473Z,67.81
2018-03-08T21:03:15.286Z,67.58
2018-03-08T21:05:44.170Z,67.50
2018-03-08T21:08:15.991Z,68.07
2018-03-08T21:10:44.995Z,68.18
2018-03-08T21:13:13.938Z,68.62
2018-03-08T21:15:43.819Z,68.25
2018-03-08T21:18:13.511Z,68.44
2018-03-08T21:20:42.770Z,69.42
2018-03-08T21:23:11.733Z,68.91
2018-03-08T21:25:40.693Z,68.79
2018-03-08T21:28:09.659Z,69.05
2018-03-08T21:30:40.620Z,68.99
2018-03-08T21:33:09.682Z,68.89
2018-03-08T21:35:38.712Z,69.15
2018-03-08T21:40:45.004Z,69.39
2018-03-08T21:43:13.950Z,69.11
2018-03-08T21:45:44.925Z,69.95
2018-03-08T21:48:15.408Z,70.17
2018-03-08T21:50:44.519Z,70.11
2018-03-08T21:53:13.964Z,70.53
2018-03-08T21:55:48.861Z,71.36
2018-03-08T21:58:18.774Z,71.26
2018-03-08T22:00:47.875Z,70.75
2018-03-08T22:03:20.235Z,70.36
2018-03-08T22:05:49.333Z,71.10
2018-03-08T22:08:18.335Z,71.48
2018-03-08T22:10:47.474Z,71.24
2018-03-08T22:13:16.826Z,70.64
2018-03-08T22:15:45.833Z,71.71
2018-03-08T22:18:14.861Z,71.75
2018-03-08T22:20:43.955Z,71.77
2018-03-08T22:23:13.002Z,71.71
2018-03-08T22:25:44.660Z,71.55
2018-03-08T22:28:13.964Z,71.66
2018-03-08T22:30:44.389Z,71.27
2018-03-08T22:33:14.968Z,70.66
2018-03-08T22:35:44.852Z,70.39
2018-03-08T22:38:13.934Z,70.55
2018-03-08T22:40:43.032Z,70.69
2018-03-08T22:43:12.834Z,70.42
2018-03-08T22:45:42.751Z,70.37
2018-03-08T22:48:11.960Z,70.22
2018-03-08T22:50:41.158Z,70.16
2018-03-08T22:53:10.334Z,69.90
2018-03-08T22:55:39.513Z,70.67
2018-03-08T22:58:08.436Z,69.46
2018-03-08T23:00:37.395Z,69.40
2018-03-08T23:03:12.122Z,69.08
2018-03-08T23:05:42.078Z,69.00
2018-03-08T23:08:11.455Z,69.06
2018-03-08T23:10:40.641Z,69.07
2018-03-08T23:13:09.599Z,69.11
2018-03-08T23:15:38.628Z,68.62
2018-03-08T23:18:10.081Z,69.04
2018-03-08T23:20:38.977Z,69.28
2018-03-08T23:23:07.960Z,68.45
2018-03-08T23:25:40.545Z,68.13
2018-03-08T23:28:10.050Z,68.82
2018-03-08T23:30:39.865Z,68.05
2018-03-08T23:33:09.071Z,67.33
2018-03-08T23:35:38.915Z,67.70
2018-03-08T23:38:08.094Z,66.68
2018-03-08T23:40:37.162Z,66.37
2018-03-08T23:43:06.438Z,66.10
2018-03-08T23:45:35.408Z,66.05
2018-03-08T23:48:05.589Z,65.75
2018-03-08T23:50:34.590Z,65.91
2018-03-08T23:53:03.408Z,65.76
2018-03-08T23:55:32.432Z,65.60
2018-03-08T23:58:01.460Z,66.54
